createdAt,value
2023-08-08T00:00:18.935Z,1.23
2023-08-08T00:03:06.334Z,1.20
2023-08-08T00:05:34.006Z,1.25
2023-08-08T00:08:01.288Z,1.30
2023-08-08T00:10:28.855Z,1.33
2023-08-08T00:12:56.162Z,1.33
2023-08-08T00:15:23.860Z,1.58
2023-08-08T00:17:51.167Z,1.27
2023-08-08T00:20:18.800Z,1.27
2023-08-08T00:22:46.105Z,1.15
2023-08-08T00:25:13.725Z,1.35
2023-08-08T00:27:41.095Z,1.48
2023-08-08T00:30:09.221Z,1.38
2023-08-08T00:32:36.538Z,1.20
2023-08-08T00:35:22.848Z,2.47
2023-08-08T00:37:50.374Z,1.38
2023-08-08T00:40:17.958Z,1.10
2023-08-08T00:42:46.291Z,1.15
2023-08-08T00:45:13.827Z,1.23
2023-08-08T00:47:41.247Z,1.30
2023-08-08T00:50:09.508Z,1.10
2023-08-08T00:52:37.082Z,1.40
2023-08-08T00:55:05.067Z,1.10
2023-08-08T00:57:32.365Z,1.10
2023-08-08T00:59:59.907Z,1.10
2023-08-08T01:02:27.332Z,1.40
2023-08-08T01:04:55.030Z,1.85
2023-08-08T01:07:37.952Z,1.45
2023-08-08T01:10:15.534Z,1.30
2023-08-08T01:12:47.349Z,1.27
2023-08-08T01:15:15.643Z,1.67
2023-08-08T01:17:43.532Z,1.83
2023-08-08T01:20:11.652Z,1.25
2023-08-08T01:22:40.976Z,1.30
2023-08-08T01:25:09.241Z,1.60
2023-08-08T01:27:36.781Z,1.40
2023-08-08T01:30:04.726Z,1.63
2023-08-08T01:32:32.014Z,1.17
2023-08-08T01:34:59.863Z,1.50
2023-08-08T01:37:30.992Z,1.70
2023-08-08T01:39:58.976Z,1.20
2023-08-08T01:42:26.862Z,1.38
2023-08-08T01:44:55.310Z,1.58
2023-08-08T01:47:22.587Z,1.60
2023-08-08T01:49:50.175Z,1.20
2023-08-08T01:52:17.566Z,1.58
2023-08-08T01:54:45.180Z,1.50
2023-08-08T01:57:12.420Z,1.55
2023-08-08T01:59:40.081Z,2.25
2023-08-08T02:02:07.411Z,1.67
2023-08-08T02:04:35.022Z,1.60
2023-08-08T02:07:02.285Z,1.35
2023-08-08T02:09:29.989Z,1.55
2023-08-08T02:11:57.642Z,1.63
2023-08-08T02:14:25.408Z,1.50
2023-08-08T02:16:52.672Z,1.52
2023-08-08T02:19:20.205Z,1.35
2023-08-08T02:21:47.445Z,1.17
2023-08-08T02:24:15.132Z,2.50
2023-08-08T02:26:42.363Z,1.45
2023-08-08T02:29:09.943Z,1.50
2023-08-08T02:31:37.233Z,1.60
2023-08-08T02:34:04.904Z,1.17
2023-08-08T02:36:32.185Z,1.52
2023-08-08T02:38:59.898Z,1.40
2023-08-08T02:41:28.254Z,1.35
2023-08-08T02:43:55.831Z,1.30
2023-08-08T02:46:23.180Z,1.52
2023-08-08T02:48:50.762Z,1.30
2023-08-08T02:51:18.052Z,1.50
2023-08-08T02:53:45.592Z,1.50
2023-08-08T02:56:12.866Z,1.55
2023-08-08T02:58:40.432Z,1.45
2023-08-08T03:01:07.802Z,1.73
2023-08-08T03:03:35.459Z,1.58
2023-08-08T03:06:02.755Z,1.35
2023-08-08T03:08:30.460Z,1.48
2023-08-08T03:10:57.749Z,1.70
2023-08-08T03:13:25.346Z,1.67
2023-08-08T03:15:52.729Z,1.40
2023-08-08T03:18:20.306Z,1.42
2023-08-08T03:20:47.596Z,1.38
2023-08-08T03:23:15.131Z,1.27
2023-08-08T03:25:42.410Z,1.33
2023-08-08T03:28:09.961Z,1.52
2023-08-08T03:30:37.840Z,1.33
2023-08-08T03:33:05.936Z,0.90
2023-08-08T03:35:33.324Z,1.20
2023-08-08T03:38:00.865Z,1.33
2023-08-08T03:40:28.297Z,1.17
2023-08-08T03:42:55.954Z,1.17
2023-08-08T03:45:23.264Z,1.15
2023-08-08T03:47:50.963Z,1.13
2023-08-08T03:50:18.350Z,0.98
2023-08-08T03:52:45.914Z,1.05
2023-08-08T03:55:13.170Z,1.38
2023-08-08T03:57:40.814Z,1.10
2023-08-08T04:00:08.402Z,0.82
2023-08-08T04:02:36.019Z,1.20
2023-08-08T04:05:03.375Z,1.33
2023-08-08T04:07:30.936Z,1.63
2023-08-08T04:09:58.275Z,1.60
2023-08-08T04:12:25.935Z,1.63
2023-08-08T04:14:53.328Z,1.52
2023-08-08T04:17:20.897Z,1.48
2023-08-08T04:19:48.156Z,1.20
2023-08-08T04:22:15.717Z,1.27
2023-08-08T04:24:43.059Z,1.50
2023-08-08T04:27:10.678Z,1.58
2023-08-08T04:29:37.978Z,1.17
2023-08-08T04:32:05.815Z,1.80
2023-08-08T04:34:33.109Z,1.30
2023-08-08T04:37:00.704Z,1.13
2023-08-08T04:39:28.227Z,1.38
2023-08-08T04:41:55.786Z,1.30
2023-08-08T04:44:23.105Z,1.30
2023-08-08T04:46:50.719Z,1.30
2023-08-08T04:49:17.994Z,1.50
2023-08-08T04:51:45.549Z,1.35
2023-08-08T04:54:12.810Z,1.27
2023-08-08T04:56:40.402Z,1.38
2023-08-08T04:59:07.654Z,1.05
2023-08-08T05:01:35.261Z,1.00
2023-08-08T05:04:02.614Z,1.23
2023-08-08T05:06:30.145Z,1.40
2023-08-08T05:08:57.511Z,1.52
2023-08-08T05:11:25.395Z,1.17
2023-08-08T05:13:52.677Z,1.10
2023-08-08T05:16:20.296Z,1.20
2023-08-08T05:18:47.620Z,1.40
2023-08-08T05:21:15.217Z,1.30
2023-08-08T05:23:42.473Z,1.23
2023-08-08T05:26:10.635Z,0.98
2023-08-08T05:28:37.889Z,1.40
2023-08-08T05:31:05.577Z,1.20
2023-08-08T05:33:34.089Z,1.48
2023-08-08T05:36:01.746Z,1.38
2023-08-08T05:38:29.178Z,1.20
2023-08-08T05:40:56.772Z,1.02
2023-08-08T05:43:24.066Z,1.20
2023-08-08T05:45:51.690Z,1.20
2023-08-08T05:48:19.082Z,1.40
2023-08-08T05:50:47.049Z,1.10
2023-08-08T05:53:14.476Z,1.00
2023-08-08T05:55:42.666Z,1.10
2023-08-08T05:58:10.093Z,0.90
2023-08-08T06:00:37.728Z,0.88
2023-08-08T06:03:05.350Z,1.10
2023-08-08T06:05:33.074Z,0.95
2023-08-08T06:08:00.421Z,1.17
2023-08-08T06:10:28.013Z,0.80
2023-08-08T06:12:55.402Z,1.08
2023-08-08T06:15:23.161Z,1.05
2023-08-08T06:17:50.693Z,0.70
2023-08-08T06:20:21.092Z,0.80
2023-08-08T06:22:48.530Z,1.00
2023-08-08T06:25:16.298Z,0.80
2023-08-08T06:27:43.646Z,0.80
2023-08-08T06:30:11.351Z,0.70
2023-08-08T06:32:38.787Z,0.90
2023-08-08T06:35:06.573Z,1.15
2023-08-08T06:37:33.892Z,0.90
2023-08-08T06:40:01.512Z,0.93
2023-08-08T06:42:28.906Z,0.75
2023-08-08T06:44:56.444Z,0.90
2023-08-08T06:47:23.726Z,0.77
2023-08-08T06:49:51.258Z,0.77
2023-08-08T06:52:18.588Z,1.00
2023-08-08T06:54:46.157Z,0.98
2023-08-08T06:57:13.462Z,0.68
2023-08-08T06:59:41.058Z,0.98
2023-08-08T07:02:08.648Z,0.70
2023-08-08T07:04:36.506Z,0.75
2023-08-08T07:07:03.970Z,0.85
2023-08-08T07:09:31.560Z,0.60
2023-08-08T07:11:59.241Z,0.82
2023-08-08T07:14:27.090Z,0.70
2023-08-08T07:16:54.658Z,0.70
2023-08-08T07:19:22.536Z,0.90
2023-08-08T07:21:49.805Z,0.80
2023-08-08T07:24:17.930Z,0.60
2023-08-08T07:26:45.203Z,0.80
2023-08-08T07:29:12.846Z,0.63
2023-08-08T07:31:40.149Z,0.90
2023-08-08T07:34:07.740Z,1.13
2023-08-08T07:36:35.077Z,0.60
2023-08-08T07:39:02.698Z,0.60
2023-08-08T07:41:30.862Z,0.60
2023-08-08T07:43:58.494Z,0.60
2023-08-08T07:46:25.826Z,0.63
2023-08-08T07:48:53.495Z,0.70
2023-08-08T07:51:20.842Z,0.57
2023-08-08T07:53:48.412Z,0.63
2023-08-08T07:56:15.720Z,0.47
2023-08-08T07:58:43.330Z,0.63
2023-08-08T08:01:10.798Z,0.40
2023-08-08T08:03:38.592Z,0.63
2023-08-08T08:06:06.274Z,0.63
2023-08-08T08:08:33.985Z,0.65
2023-08-08T08:11:02.565Z,1.00
2023-08-08T08:13:30.219Z,0.60
2023-08-08T08:15:57.518Z,0.32
2023-08-08T08:18:25.164Z,0.40
2023-08-08T08:20:52.549Z,0.63
2023-08-08T08:23:20.184Z,0.30
2023-08-08T08:25:47.575Z,0.60
2023-08-08T08:28:15.959Z,0.40
2023-08-08T08:30:43.286Z,0.40
2023-08-08T08:33:10.931Z,0.70
2023-08-08T08:35:38.303Z,0.50
2023-08-08T08:38:05.882Z,0.40
2023-08-08T08:40:37.117Z,0.50
2023-08-08T08:43:08.336Z,0.77
2023-08-08T08:45:37.927Z,0.50
2023-08-08T08:48:07.095Z,0.45
2023-08-08T08:50:34.933Z,1.95
2023-08-08T08:53:02.896Z,0.60
2023-08-08T08:55:30.180Z,0.57
2023-08-08T08:57:57.823Z,0.55
2023-08-08T09:00:25.156Z,0.70
2023-08-08T09:02:53.093Z,0.20
2023-08-08T09:05:20.796Z,0.40
2023-08-08T09:07:48.127Z,0.70
2023-08-08T09:10:16.722Z,0.35
2023-08-08T09:12:44.200Z,0.32
2023-08-08T09:15:14.750Z,0.30
2023-08-08T09:17:48.479Z,0.70
2023-08-08T09:20:17.993Z,0.40
2023-08-08T09:22:45.314Z,0.40
2023-08-08T09:25:13.022Z,0.50
2023-08-08T09:27:41.833Z,0.45
2023-08-08T09:30:10.430Z,0.57
2023-08-08T09:32:40.086Z,0.50
2023-08-08T09:35:07.841Z,0.70
2023-08-08T09:37:35.225Z,0.40
2023-08-08T09:40:03.956Z,0.50
2023-08-08T09:42:31.304Z,0.60
2023-08-08T09:44:59.357Z,0.50
2023-08-08T09:47:27.150Z,0.75
2023-08-08T09:49:55.207Z,0.73
2023-08-08T09:52:22.578Z,0.30
2023-08-08T09:54:50.456Z,0.40
2023-08-08T09:57:18.266Z,0.40
2023-08-08T09:59:46.713Z,0.47
2023-08-08T10:02:15.376Z,0.50
2023-08-08T10:04:43.124Z,0.60
2023-08-08T10:07:10.611Z,0.40
2023-08-08T10:09:38.473Z,0.50
2023-08-08T10:12:06.971Z,0.70
2023-08-08T10:14:36.511Z,0.40
2023-08-08T10:17:04.254Z,0.40
2023-08-08T10:19:31.811Z,0.50
2023-08-08T10:22:00.617Z,0.47
2023-08-08T10:24:33.689Z,0.50
2023-08-08T10:27:01.671Z,0.88
2023-08-08T10:29:30.367Z,0.60
2023-08-08T10:32:00.671Z,0.63
2023-08-08T10:34:49.097Z,0.50
2023-08-08T10:37:17.386Z,0.70
2023-08-08T10:39:54.570Z,0.60
2023-08-08T10:42:23.732Z,0.60
2023-08-08T10:44:55.813Z,0.80
2023-08-08T10:47:26.814Z,0.45
2023-08-08T10:49:58.564Z,0.45
2023-08-08T10:52:25.905Z,0.50
2023-08-08T10:54:54.065Z,0.40
2023-08-08T10:57:25.052Z,0.55
2023-08-08T10:59:52.656Z,0.70
2023-08-08T11:02:20.575Z,0.63
2023-08-08T11:04:49.104Z,1.25
2023-08-08T11:07:16.446Z,0.50
2023-08-08T11:09:44.327Z,0.52
2023-08-08T11:12:16.097Z,0.82
2023-08-08T11:17:11.526Z,0.90
2023-08-08T11:19:40.028Z,0.80
2023-08-08T11:22:10.406Z,0.70
2023-08-08T11:24:37.998Z,0.63
2023-08-08T11:27:05.406Z,0.80
2023-08-08T11:29:33.141Z,0.55
2023-08-08T11:32:02.023Z,0.70
2023-08-08T11:34:35.550Z,0.60
2023-08-08T11:37:03.245Z,0.63
2023-08-08T11:39:30.884Z,0.60
2023-08-08T11:41:59.858Z,0.70
2023-08-08T11:44:27.768Z,0.43
2023-08-08T11:46:55.331Z,0.47
2023-08-08T11:49:25.070Z,0.50
2023-08-08T11:51:54.956Z,0.63
2023-08-08T11:54:22.540Z,0.50
2023-08-08T11:56:49.836Z,0.70
2023-08-08T11:59:20.005Z,0.60
2023-08-08T12:01:47.329Z,0.77
2023-08-08T12:04:16.142Z,0.90
2023-08-08T12:06:43.440Z,1.05
2023-08-08T12:09:13.957Z,0.70
2023-08-08T12:11:41.258Z,0.90
2023-08-08T12:14:09.574Z,0.77
2023-08-08T12:16:38.614Z,0.82
2023-08-08T12:19:08.324Z,0.60
2023-08-08T12:21:35.624Z,0.77
2023-08-08T12:24:03.267Z,0.70
2023-08-08T12:26:30.666Z,0.70
2023-08-08T12:28:58.400Z,1.27
2023-08-08T12:31:25.735Z,0.60
2023-08-08T12:33:55.738Z,0.70
2023-08-08T12:36:23.183Z,0.90
2023-08-08T12:38:50.922Z,0.77
2023-08-08T12:41:18.506Z,0.60
2023-08-08T12:43:46.234Z,0.55
2023-08-08T12:46:13.658Z,0.88
2023-08-08T12:48:41.362Z,0.80
2023-08-08T12:51:08.868Z,0.77
2023-08-08T12:53:37.046Z,0.50
2023-08-08T12:56:04.582Z,0.98
2023-08-08T12:58:32.507Z,0.50
2023-08-08T13:01:00.046Z,0.70
2023-08-08T13:03:28.895Z,0.60
2023-08-08T13:05:56.944Z,0.60
2023-08-08T13:08:24.800Z,0.40
2023-08-08T13:10:52.469Z,1.02
2023-08-08T13:13:20.318Z,0.65
2023-08-08T13:15:47.627Z,0.77
2023-08-08T13:18:15.457Z,0.60
2023-08-08T13:20:42.736Z,0.70
2023-08-08T13:23:10.390Z,0.73
2023-08-08T13:25:37.831Z,0.90
2023-08-08T13:28:05.663Z,0.80
2023-08-08T13:30:33.260Z,0.50
2023-08-08T13:33:03.279Z,0.80
2023-08-08T13:35:30.968Z,0.50
2023-08-08T13:37:58.745Z,0.50
2023-08-08T13:40:26.026Z,0.93
2023-08-08T13:42:53.733Z,0.60
2023-08-08T13:45:21.323Z,0.90
2023-08-08T13:47:49.764Z,0.65
2023-08-08T13:50:17.207Z,0.75
2023-08-08T13:52:44.797Z,0.70
2023-08-08T13:55:12.095Z,0.60
2023-08-08T13:57:39.671Z,0.60
2023-08-08T14:00:07.354Z,0.60
2023-08-08T14:02:35.055Z,0.73
2023-08-08T14:05:02.478Z,0.60
2023-08-08T14:07:30.088Z,0.93
2023-08-08T14:09:57.534Z,0.57
2023-08-08T14:12:25.177Z,0.88
2023-08-08T14:14:52.441Z,0.52
2023-08-08T14:17:20.036Z,0.50
2023-08-08T14:19:47.393Z,1.00
2023-08-08T14:22:15.010Z,0.57
2023-08-08T14:24:45.117Z,0.90
2023-08-08T14:27:12.769Z,0.88
2023-08-08T14:29:40.052Z,0.70
2023-08-08T14:32:07.960Z,0.50
2023-08-08T14:34:35.668Z,0.60
2023-08-08T14:37:03.034Z,0.57
2023-08-08T14:39:30.682Z,0.63
2023-08-08T14:41:59.738Z,0.82
2023-08-08T14:44:27.779Z,0.40
2023-08-08T14:46:55.120Z,0.60
2023-08-08T14:49:22.694Z,0.60
2023-08-08T14:51:49.942Z,0.57
2023-08-08T14:54:17.638Z,0.82
2023-08-08T14:56:44.955Z,0.80
2023-08-08T14:59:12.565Z,0.70
2023-08-08T15:01:39.875Z,0.73
2023-08-08T15:04:07.545Z,0.80
2023-08-08T15:06:34.899Z,0.50
2023-08-08T15:09:02.499Z,0.60
2023-08-08T15:11:29.771Z,0.80
2023-08-08T15:13:57.320Z,0.57
2023-08-08T15:16:24.607Z,0.70
2023-08-08T15:18:52.307Z,0.65
2023-08-08T15:21:19.602Z,0.80
2023-08-08T15:23:47.434Z,0.80
2023-08-08T15:26:15.202Z,0.80
2023-08-08T15:28:43.013Z,0.60
2023-08-08T15:31:10.364Z,0.90
2023-08-08T15:33:38.002Z,0.85
2023-08-08T15:36:08.446Z,1.08
2023-08-08T15:38:36.014Z,0.90
2023-08-08T15:41:03.378Z,0.95
2023-08-08T15:43:30.979Z,1.05
2023-08-08T15:45:59.658Z,0.50
2023-08-08T15:48:27.975Z,0.40
2023-08-08T15:50:55.327Z,0.85
2023-08-08T15:53:23.005Z,0.70
2023-08-08T15:55:50.468Z,0.70
2023-08-08T15:58:18.127Z,0.95
2023-08-08T16:00:45.517Z,0.90
2023-08-08T16:03:13.327Z,1.00
2023-08-08T16:05:40.948Z,1.00
2023-08-08T16:08:08.842Z,0.90
2023-08-08T16:10:36.452Z,1.00
2023-08-08T16:13:04.104Z,0.85
2023-08-08T16:15:31.404Z,0.52
2023-08-08T16:17:59.022Z,0.73
2023-08-08T16:20:26.366Z,1.00
2023-08-08T16:22:54.740Z,0.60
2023-08-08T16:25:22.099Z,0.70
2023-08-08T16:27:49.719Z,0.40
2023-08-08T16:30:17.056Z,0.70
2023-08-08T16:32:44.664Z,0.73
2023-08-08T16:35:12.080Z,0.50
2023-08-08T16:37:39.760Z,0.57
2023-08-08T16:40:07.922Z,0.90
2023-08-08T16:42:35.513Z,0.70
2023-08-08T16:45:02.964Z,0.80
2023-08-08T16:47:30.635Z,0.82
2023-08-08T16:49:58.046Z,0.88
2023-08-08T16:52:25.674Z,0.70
2023-08-08T16:54:54.785Z,0.63
2023-08-08T16:57:22.622Z,0.80
2023-08-08T16:59:49.963Z,0.70
2023-08-08T17:02:17.673Z,0.50
2023-08-08T17:04:45.018Z,0.80
2023-08-08T17:07:12.713Z,1.00
2023-08-08T17:09:40.037Z,0.63
2023-08-08T17:12:07.997Z,0.98
2023-08-08T17:14:35.549Z,0.30
2023-08-08T17:17:03.163Z,0.80
2023-08-08T17:19:30.492Z,0.65
2023-08-08T17:21:58.135Z,0.30
2023-08-08T17:24:32.020Z,0.50
2023-08-08T17:27:02.831Z,0.30
2023-08-08T17:29:30.178Z,0.50
2023-08-08T17:31:57.837Z,0.60
2023-08-08T17:34:26.222Z,0.30
2023-08-08T17:36:53.840Z,0.38
2023-08-08T17:39:21.117Z,0.30
2023-08-08T17:41:48.696Z,0.30
2023-08-08T17:44:16.040Z,0.35
2023-08-08T17:46:43.726Z,0.30
2023-08-08T17:49:10.988Z,0.50
2023-08-08T17:51:38.710Z,0.32
2023-08-08T17:54:06.287Z,0.50
2023-08-08T17:56:33.871Z,0.52
2023-08-08T17:59:01.262Z,0.95
2023-08-08T18:01:28.849Z,0.40
2023-08-08T18:03:56.233Z,0.70
2023-08-08T18:06:23.892Z,0.93
2023-08-08T18:08:51.273Z,0.70
2023-08-08T18:11:18.932Z,0.60
2023-08-08T18:13:46.178Z,0.85
2023-08-08T18:16:13.728Z,1.10
2023-08-08T18:18:41.105Z,1.20
2023-08-08T18:21:08.806Z,0.70
2023-08-08T18:23:36.270Z,0.80
2023-08-08T18:26:03.982Z,0.90
2023-08-08T18:28:32.080Z,0.80
2023-08-08T18:30:59.828Z,0.88
2023-08-08T18:33:27.351Z,0.85
2023-08-08T18:35:55.038Z,0.90
2023-08-08T18:38:22.373Z,0.75
2023-08-08T18:40:49.960Z,0.90
2023-08-08T18:43:17.766Z,0.88
2023-08-08T18:45:45.786Z,0.88
2023-08-08T18:48:13.253Z,0.80
2023-08-08T18:50:40.974Z,0.47
2023-08-08T18:53:08.501Z,0.40
2023-08-08T18:55:36.305Z,0.55
2023-08-08T18:58:03.794Z,0.80
2023-08-08T19:00:31.556Z,0.77
2023-08-08T19:03:02.029Z,0.95
2023-08-08T19:05:29.808Z,0.80
2023-08-08T19:07:57.052Z,0.68
2023-08-08T19:10:25.037Z,0.90
2023-08-08T19:12:52.550Z,0.75
2023-08-08T19:15:20.364Z,0.88
2023-08-08T19:17:55.893Z,0.80
2023-08-08T19:20:27.180Z,1.00
2023-08-08T19:22:54.616Z,0.50
2023-08-08T19:25:22.838Z,0.88
2023-08-08T19:27:50.366Z,0.88
2023-08-08T19:30:18.370Z,0.80
2023-08-08T19:32:46.011Z,0.80
2023-08-08T19:35:13.758Z,1.02
2023-08-08T19:37:41.328Z,1.88
2023-08-08T19:40:09.450Z,1.80
2023-08-08T19:42:36.775Z,1.48
2023-08-08T19:45:04.731Z,1.60
2023-08-08T19:47:32.414Z,1.92
2023-08-08T19:50:00.204Z,1.70
2023-08-08T19:52:27.539Z,2.00
2023-08-08T19:54:55.182Z,2.15
2023-08-08T19:57:22.511Z,1.80
2023-08-08T19:59:50.230Z,1.65
2023-08-08T20:02:17.792Z,1.83
2023-08-08T20:04:45.449Z,1.65
2023-08-08T20:07:13.485Z,1.70
2023-08-08T20:09:41.296Z,1.58
2023-08-08T20:12:08.679Z,1.50
2023-08-08T20:14:36.511Z,1.73
2023-08-08T20:17:04.268Z,1.88
2023-08-08T20:19:34.218Z,1.80
2023-08-08T20:22:01.542Z,1.50
2023-08-08T20:24:29.396Z,1.50
2023-08-08T20:26:56.958Z,1.50
2023-08-08T20:29:24.572Z,1.73
2023-08-08T20:31:52.004Z,1.90
2023-08-08T20:34:19.677Z,1.65
2023-08-08T20:36:46.979Z,1.48
2023-08-08T20:39:14.842Z,1.80
2023-08-08T20:41:43.174Z,2.03
2023-08-08T20:44:10.832Z,1.40
2023-08-08T20:46:38.212Z,2.17
2023-08-08T20:49:05.808Z,1.80
2023-08-08T20:51:33.155Z,1.83
2023-08-08T20:54:00.788Z,2.05
2023-08-08T20:56:28.063Z,1.35
2023-08-08T20:58:55.596Z,1.50
2023-08-08T21:01:22.999Z,1.58
2023-08-08T21:03:50.573Z,1.52
2023-08-08T21:06:17.869Z,1.70
2023-08-08T21:08:45.408Z,1.30
2023-08-08T21:11:12.704Z,1.40
2023-08-08T21:13:40.334Z,1.30
2023-08-08T21:16:07.614Z,1.40
2023-08-08T21:18:35.162Z,1.33
2023-08-08T21:21:04.384Z,1.58
2023-08-08T21:23:33.492Z,1.48
2023-08-08T21:26:00.791Z,1.63
2023-08-08T21:28:30.443Z,1.45
2023-08-08T21:30:57.958Z,1.52
2023-08-08T21:33:25.564Z,1.67
2023-08-08T21:35:52.908Z,1.30
2023-08-08T21:38:20.527Z,1.70
2023-08-08T21:40:47.834Z,1.50
2023-08-08T21:43:15.427Z,1.80
2023-08-08T21:45:42.687Z,1.48
2023-08-08T21:48:10.367Z,1.50
2023-08-08T21:50:37.657Z,1.65
